sensor_id;sensor_type;location;lat;lon;timestamp;pressure;altitude;pressure_sealevel;temperature;humidity
54266;BME280;40836;39.770;2.714;2022-09-29T00:00:22;100449.06;;;19.28;67.24
54266;BME280;40836;39.770;2.714;2022-09-29T00:02:48;100440.63;;;19.18;67.57
54266;BME280;40836;39.770;2.714;2022-09-29T00:05:13;100426.28;;;19.24;67.15
54266;BME280;40836;39.770;2.714;2022-09-29T00:07:39;100444.06;;;19.34;67.45
54266;BME280;40836;39.770;2.714;2022-09-29T00:10:04;100441.31;;;19.34;67.49
54266;BME280;40836;39.770;2.714;2022-09-29T00:12:30;100442.09;;;19.34;67.42
54266;BME280;40836;39.770;2.714;2022-09-29T00:14:55;100431.75;;;19.24;67.92
54266;BME280;40836;39.770;2.714;2022-09-29T00:17:21;100421.13;;;19.19;67.75
54266;BME280;40836;39.770;2.714;2022-09-29T00:19:46;100427.75;;;19.18;67.98
54266;BME280;40836;39.770;2.714;2022-09-29T00:22:12;100420.97;;;19.12;68.42
54266;BME280;40836;39.770;2.714;2022-09-29T00:24:37;100422.66;;;19.17;68.16
54266;BME280;40836;39.770;2.714;2022-09-29T00:27:03;100418.09;;;19.24;67.79
54266;BME280;40836;39.770;2.714;2022-09-29T00:29:29;100422.19;;;19.15;68.47
54266;BME280;40836;39.770;2.714;2022-09-29T00:31:54;100422.28;;;19.18;68.16
54266;BME280;40836;39.770;2.714;2022-09-29T00:34:19;100398.63;;;19.06;68.14
54266;BME280;40836;39.770;2.714;2022-09-29T00:36:45;100410.22;;;19.19;68.46
54266;BME280;40836;39.770;2.714;2022-09-29T00:39:10;100400.22;;;19.07;68.57
54266;BME280;40836;39.770;2.714;2022-09-29T00:41:38;100416.31;;;19.13;68.65
54266;BME280;40836;39.770;2.714;2022-09-29T00:51:49;100401.03;;;19.31;68.22
54266;BME280;40836;39.770;2.714;2022-09-29T00:54:16;100396.00;;;19.33;68.37
54266;BME280;40836;39.770;2.714;2022-09-29T00:56:43;100387.41;;;19.34;68.42
54266;BME280;40836;39.770;2.714;2022-09-29T00:59:14;100390.16;;;19.34;68.85
54266;BME280;40836;39.770;2.714;2022-09-29T01:01:42;100389.38;;;19.34;68.81
54266;BME280;40836;39.770;2.714;2022-09-29T01:04:11;100377.38;;;19.39;68.74
54266;BME280;40836;39.770;2.714;2022-09-29T01:06:55;100375.09;;;19.44;68.50
54266;BME280;40836;39.770;2.714;2022-09-29T01:09:32;100379.50;;;19.49;68.10
54266;BME280;40836;39.770;2.714;2022-09-29T01:11:59;100370.19;;;19.53;68.47
54266;BME280;40836;39.770;2.714;2022-09-29T01:14:27;100367.50;;;19.57;68.48
54266;BME280;40836;39.770;2.714;2022-09-29T01:16:53;100359.69;;;19.55;68.33
54266;BME280;40836;39.770;2.714;2022-09-29T01:30:07;100352.03;;;19.65;68.65
54266;BME280;40836;39.770;2.714;2022-09-29T01:32:42;100356.00;;;19.67;68.67
54266;BME280;40836;39.770;2.714;2022-09-29T01:35:32;100347.97;;;19.78;68.60
54266;BME280;40836;39.770;2.714;2022-09-29T01:40:58;100343.38;;;19.86;68.58
54266;BME280;40836;39.770;2.714;2022-09-29T01:44:08;100345.06;;;19.94;68.57
54266;BME280;40836;39.770;2.714;2022-09-29T01:46:42;100340.09;;;19.99;68.80
54266;BME280;40836;39.770;2.714;2022-09-29T01:49:10;100335.44;;;20.03;68.71
54266;BME280;40836;39.770;2.714;2022-09-29T01:54:13;100340.19;;;20.07;68.86
54266;BME280;40836;39.770;2.714;2022-09-29T01:56:47;100327.06;;;19.93;68.65
54266;BME280;40836;39.770;2.714;2022-09-29T01:59:23;100350.75;;;20.08;68.71
54266;BME280;40836;39.770;2.714;2022-09-29T02:01:57;100340.66;;;20.12;68.42
54266;BME280;40836;39.770;2.714;2022-09-29T02:04:31;100338.72;;;20.13;68.47
54266;BME280;40836;39.770;2.714;2022-09-29T02:07:13;100336.81;;;20.17;68.51
54266;BME280;40836;39.770;2.714;2022-09-29T02:09:44;100333.69;;;20.18;68.57
54266;BME280;40836;39.770;2.714;2022-09-29T02:12:16;100334.09;;;20.20;68.61
54266;BME280;40836;39.770;2.714;2022-09-29T02:14:46;100326.31;;;20.22;68.82
54266;BME280;40836;39.770;2.714;2022-09-29T02:17:18;100319.25;;;20.21;68.65
54266;BME280;40836;39.770;2.714;2022-09-29T02:19:47;100325.94;;;20.24;68.62
54266;BME280;40836;39.770;2.714;2022-09-29T02:22:15;100322.84;;;20.25;68.78
54266;BME280;40836;39.770;2.714;2022-09-29T02:24:41;100329.50;;;20.28;68.92
54266;BME280;40836;39.770;2.714;2022-09-29T02:27:07;100325.25;;;20.31;68.97
54266;BME280;40836;39.770;2.714;2022-09-29T02:29:34;100334.28;;;20.35;68.83
54266;BME280;40836;39.770;2.714;2022-09-29T02:32:02;100328.06;;;20.38;68.85
54266;BME280;40836;39.770;2.714;2022-09-29T02:34:30;100320.66;;;20.38;69.08
54266;BME280;40836;39.770;2.714;2022-09-29T02:37:16;100328.44;;;20.36;69.21
54266;BME280;40836;39.770;2.714;2022-09-29T02:39:54;100324.09;;;20.32;69.96
54266;BME280;40836;39.770;2.714;2022-09-29T02:52:54;100303.56;;;20.48;70.59
54266;BME280;40836;39.770;2.714;2022-09-29T02:55:37;100303.19;;;20.50;70.33
54266;BME280;40836;39.770;2.714;2022-09-29T03:00:40;100289.88;;;20.48;70.14
54266;BME280;40836;39.770;2.714;2022-09-29T03:03:06;100293.75;;;20.47;70.65
54266;BME280;40836;39.770;2.714;2022-09-29T03:05:31;100300.06;;;20.48;70.86
54266;BME280;40836;39.770;2.714;2022-09-29T03:07:57;100280.88;;;20.48;70.89
54266;BME280;40836;39.770;2.714;2022-09-29T03:10:22;100277.25;;;20.40;70.75
54266;BME280;40836;39.770;2.714;2022-09-29T03:12:48;100282.66;;;20.33;71.23
54266;BME280;40836;39.770;2.714;2022-09-29T03:15:13;100279.13;;;20.33;71.16
54266;BME280;40836;39.770;2.714;2022-09-29T03:17:39;100279.91;;;20.33;71.23
54266;BME280;40836;39.770;2.714;2022-09-29T03:20:06;100280.66;;;20.30;71.05
54266;BME280;40836;39.770;2.714;2022-09-29T03:22:32;100284.91;;;20.27;71.44
54266;BME280;40836;39.770;2.714;2022-09-29T03:24:58;100275.50;;;20.25;71.27
54266;BME280;40836;39.770;2.714;2022-09-29T03:27:23;100273.06;;;20.16;71.79
54266;BME280;40836;39.770;2.714;2022-09-29T03:29:49;100275.34;;;20.14;71.86
54266;BME280;40836;39.770;2.714;2022-09-29T03:32:15;100264.53;;;19.95;72.41
54266;BME280;40836;39.770;2.714;2022-09-29T03:34:41;100276.06;;;20.08;72.43
54266;BME280;40836;39.770;2.714;2022-09-29T03:37:06;100286.56;;;20.05;72.52
54266;BME280;40836;39.770;2.714;2022-09-29T03:39:32;100280.31;;;20.05;72.49
54266;BME280;40836;39.770;2.714;2022-09-29T03:41:57;100279.50;;;20.01;72.84
54266;BME280;40836;39.770;2.714;2022-09-29T03:44:22;100278.38;;;20.05;72.76
54266;BME280;40836;39.770;2.714;2022-09-29T03:46:48;100279.97;;;20.07;72.84
54266;BME280;40836;39.770;2.714;2022-09-29T03:49:14;100276.44;;;20.06;73.08
54266;BME280;40836;39.770;2.714;2022-09-29T03:51:40;100264.59;;;19.98;73.23
54266;BME280;40836;39.770;2.714;2022-09-29T03:54:06;100274.78;;;20.01;73.02
54266;BME280;40836;39.770;2.714;2022-09-29T03:56:32;100274.78;;;20.01;73.32
54266;BME280;40836;39.770;2.714;2022-09-29T03:58:58;100281.06;;;20.02;73.15
54266;BME280;40836;39.770;2.714;2022-09-29T04:01:24;100285.78;;;20.05;73.14
54266;BME280;40836;39.770;2.714;2022-09-29T04:03:49;100282.28;;;20.04;73.07
54266;BME280;40836;39.770;2.714;2022-09-29T04:06:15;100281.78;;;19.99;73.41
54266;BME280;40836;39.770;2.714;2022-09-29T04:08:40;100269.72;;;20.00;73.46
54266;BME280;40836;39.770;2.714;2022-09-29T04:11:06;100270.53;;;20.04;73.23
54266;BME280;40836;39.770;2.714;2022-09-29T04:13:32;100253.25;;;19.96;73.26
54266;BME280;40836;39.770;2.714;2022-09-29T04:16:00;100267.16;;;20.14;72.73
54266;BME280;40836;39.770;2.714;2022-09-29T04:18:26;100256.94;;;20.11;73.23
54266;BME280;40836;39.770;2.714;2022-09-29T04:20:52;100264.00;;;20.12;73.00
54266;BME280;40836;39.770;2.714;2022-09-29T04:23:19;100252.16;;;20.04;72.82
54266;BME280;40836;39.770;2.714;2022-09-29T04:25:44;100272.63;;;19.84;73.54
54266;BME280;40836;39.770;2.714;2022-09-29T04:28:11;100267.19;;;19.88;73.58
54266;BME280;40836;39.770;2.714;2022-09-29T04:30:36;100267.31;;;19.98;73.23
54266;BME280;40836;39.770;2.714;2022-09-29T04:33:02;100270.50;;;20.00;73.03
54266;BME280;40836;39.770;2.714;2022-09-29T04:35:27;100270.53;;;20.04;72.81
54266;BME280;40836;39.770;2.714;2022-09-29T04:37:54;100271.72;;;20.03;73.02
54266;BME280;40836;39.770;2.714;2022-09-29T04:40:22;100278.75;;;20.04;72.91
54266;BME280;40836;39.770;2.714;2022-09-29T04:42:47;100265.06;;;20.04;72.90
54266;BME280;40836;39.770;2.714;2022-09-29T04:45:13;100271.72;;;20.03;72.74
54266;BME280;40836;39.770;2.714;2022-09-29T04:47:38;100277.91;;;20.00;73.01
54266;BME280;40836;39.770;2.714;2022-09-29T04:50:04;100275.22;;;20.03;72.91
54266;BME280;40836;39.770;2.714;2022-09-29T04:52:30;100255.84;;;19.89;73.08
54266;BME280;40836;39.770;2.714;2022-09-29T04:54:55;100278.75;;;20.04;73.16
54266;BME280;40836;39.770;2.714;2022-09-29T04:57:21;100274.31;;;19.96;73.11
54266;BME280;40836;39.770;2.714;2022-09-29T04:59:46;100274.44;;;20.03;72.94
54266;BME280;40836;39.770;2.714;2022-09-29T05:02:13;100268.50;;;19.97;72.79
54266;BME280;40836;39.770;2.714;2022-09-29T05:04:38;100271.75;;;20.07;72.76
54266;BME280;40836;39.770;2.714;2022-09-29T05:07:04;100280.75;;;20.07;72.74
54266;BME280;40836;39.770;2.714;2022-09-29T05:09:29;100271.75;;;20.07;72.67
54266;BME280;40836;39.770;2.714;2022-09-29T05:11:54;100279.19;;;20.06;72.87
54266;BME280;40836;39.770;2.714;2022-09-29T05:14:20;100270.59;;;20.08;72.79
54266;BME280;40836;39.770;2.714;2022-09-29T05:16:45;100279.97;;;20.07;72.69
54266;BME280;40836;39.770;2.714;2022-09-29T05:19:11;100280.31;;;20.05;72.56
54266;BME280;40836;39.770;2.714;2022-09-29T05:21:37;100279.06;;;19.99;72.73
54266;BME280;40836;39.770;2.714;2022-09-29T05:24:02;100275.06;;;19.93;73.00
54266;BME280;40836;39.770;2.714;2022-09-29T05:26:28;100273.13;;;19.93;73.00
54266;BME280;40836;39.770;2.714;2022-09-29T05:28:53;100276.22;;;19.92;73.08
54266;BME280;40836;39.770;2.714;2022-09-29T05:31:19;100270.19;;;19.79;73.38
54266;BME280;40836;39.770;2.714;2022-09-29T05:33:44;100281.06;;;19.75;73.39
54266;BME280;40836;39.770;2.714;2022-09-29T05:36:11;100277.25;;;19.80;72.81
54266;BME280;40836;39.770;2.714;2022-09-29T05:38:37;100282.34;;;19.81;72.72
54266;BME280;40836;39.770;2.714;2022-09-29T05:41:08;100285.81;;;19.78;73.14
54266;BME280;40836;39.770;2.714;2022-09-29T05:43:35;100290.50;;;19.78;73.09
54266;BME280;40836;39.770;2.714;2022-09-29T05:46:05;100285.03;;;19.78;73.17
54266;BME280;40836;39.770;2.714;2022-09-29T05:48:30;100271.13;;;19.64;73.08
54266;BME280;40836;39.770;2.714;2022-09-29T05:50:57;100277.19;;;19.76;72.88
54266;BME280;40836;39.770;2.714;2022-09-29T05:53:23;100287.28;;;19.72;73.21
54266;BME280;40836;39.770;2.714;2022-09-29T05:55:49;100280.66;;;19.73;73.11
54266;BME280;40836;39.770;2.714;2022-09-29T05:58:14;100282.88;;;19.64;73.38
54266;BME280;40836;39.770;2.714;2022-09-29T06:00:39;100268.81;;;19.66;73.42
54266;BME280;40836;39.770;2.714;2022-09-29T06:03:05;100284.50;;;19.69;73.26
54266;BME280;40836;39.770;2.714;2022-09-29T06:05:30;100293.66;;;19.80;72.86
54266;BME280;40836;39.770;2.714;2022-09-29T06:07:56;100291.28;;;19.78;72.87
54266;BME280;40836;39.770;2.714;2022-09-29T06:10:21;100279.91;;;19.76;72.00
54266;BME280;40836;39.770;2.714;2022-09-29T06:12:47;100298.84;;;19.89;71.37
54266;BME280;40836;39.770;2.714;2022-09-29T06:15:13;100279.41;;;19.94;71.56
54266;BME280;40836;39.770;2.714;2022-09-29T06:17:38;100269.22;;;19.94;71.00
54266;BME280;40836;39.770;2.714;2022-09-29T06:20:05;100274.06;;;20.04;70.78
54266;BME280;40836;39.770;2.714;2022-09-29T06:22:33;100276.75;;;20.01;70.06
54266;BME280;40836;39.770;2.714;2022-09-29T06:24:59;100271.78;;;20.10;69.53
54266;BME280;40836;39.770;2.714;2022-09-29T06:27:24;100270.66;;;20.15;68.84
54266;BME280;40836;39.770;2.714;2022-09-29T06:29:50;100283.16;;;20.12;69.45
54266;BME280;40836;39.770;2.714;2022-09-29T06:32:16;100279.34;;;20.20;69.40
54266;BME280;40836;39.770;2.714;2022-09-29T06:34:41;100286.09;;;20.26;69.51
54266;BME280;40836;39.770;2.714;2022-09-29T06:37:26;100272.00;;;20.28;69.92
54266;BME280;40836;39.770;2.714;2022-09-29T06:40:02;100280.66;;;20.30;69.58
54266;BME280;40836;39.770;2.714;2022-09-29T06:42:29;100256.75;;;20.27;69.50
54266;BME280;40836;39.770;2.714;2022-09-29T06:44:54;100284.63;;;20.36;68.88
54266;BME280;40836;39.770;2.714;2022-09-29T06:47:20;100269.81;;;20.41;68.97
54266;BME280;40836;39.770;2.714;2022-09-29T06:49:45;100266.72;;;20.42;69.71
54266;BME280;40836;39.770;2.714;2022-09-29T06:52:10;100272.22;;;20.46;69.52
54266;BME280;40836;39.770;2.714;2022-09-29T06:54:36;100261.25;;;20.42;69.49
54266;BME280;40836;39.770;2.714;2022-09-29T06:57:01;100270.72;;;20.48;68.91
54266;BME280;40836;39.770;2.714;2022-09-29T06:59:27;100275.47;;;20.52;68.02
54266;BME280;40836;39.770;2.714;2022-09-29T07:01:52;100274.72;;;20.55;68.26
54266;BME280;40836;39.770;2.714;2022-09-29T07:04:19;100276.97;;;20.49;67.05
54266;BME280;40836;39.770;2.714;2022-09-29T07:06:45;100277.91;;;20.60;66.16
54266;BME280;40836;39.770;2.714;2022-09-29T07:09:11;100280.28;;;20.62;66.18
54266;BME280;40836;39.770;2.714;2022-09-29T07:11:44;100282.66;;;20.67;64.95
54266;BME280;40836;39.770;2.714;2022-09-29T07:14:13;100288.63;;;20.76;64.03
54266;BME280;40836;39.770;2.714;2022-09-29T07:16:39;100293.53;;;20.93;63.44
54266;BME280;40836;39.770;2.714;2022-09-29T07:19:04;100301.03;;;21.00;62.91
54266;BME280;40836;39.770;2.714;2022-09-29T07:21:30;100305.81;;;21.07;61.80
54266;BME280;40836;39.770;2.714;2022-09-29T07:23:55;100302.34;;;21.13;61.42
54266;BME280;40836;39.770;2.714;2022-09-29T07:26:20;100302.44;;;21.24;60.01
54266;BME280;40836;39.770;2.714;2022-09-29T07:28:46;100301.34;;;21.32;60.57
54266;BME280;40836;39.770;2.714;2022-09-29T07:31:15;100297.91;;;21.42;59.95
54266;BME280;40836;39.770;2.714;2022-09-29T07:33:45;100299.16;;;21.52;60.73
54266;BME280;40836;39.770;2.714;2022-09-29T07:36:12;100299.22;;;21.59;60.31
54266;BME280;40836;39.770;2.714;2022-09-29T07:38:37;100300.81;;;21.64;57.35
54266;BME280;40836;39.770;2.714;2022-09-29T07:41:06;100307.53;;;21.74;58.22
54266;BME280;40836;39.770;2.714;2022-09-29T07:43:31;100316.19;;;21.76;59.57
54266;BME280;40836;39.770;2.714;2022-09-29T07:45:57;100315.84;;;21.81;57.35
54266;BME280;40836;39.770;2.714;2022-09-29T07:48:25;100322.47;;;21.76;56.60
54266;BME280;40836;39.770;2.714;2022-09-29T07:50:50;100316.63;;;21.81;56.07
54266;BME280;40836;39.770;2.714;2022-09-29T07:53:16;100308.81;;;21.83;54.83
54266;BME280;40836;39.770;2.714;2022-09-29T07:55:42;100318.56;;;21.77;54.75
54266;BME280;40836;39.770;2.714;2022-09-29T07:58:07;100320.91;;;21.75;53.60
54266;BME280;40836;39.770;2.714;2022-09-29T08:00:33;100320.56;;;21.84;54.55
54266;BME280;40836;39.770;2.714;2022-09-29T08:03:03;100321.34;;;21.81;53.66
54266;BME280;40836;39.770;2.714;2022-09-29T08:05:29;100320.59;;;21.87;53.35
54266;BME280;40836;39.770;2.714;2022-09-29T08:08:00;100319.03;;;21.90;53.93
54266;BME280;40836;39.770;2.714;2022-09-29T08:10:28;100323.03;;;22.00;54.65
54266;BME280;40836;39.770;2.714;2022-09-29T08:12:53;100317.53;;;22.00;53.71
54266;BME280;40836;39.770;2.714;2022-09-29T08:15:20;100312.38;;;21.91;53.52
54266;BME280;40836;39.770;2.714;2022-09-29T08:17:45;100309.66;;;21.95;54.47
54266;BME280;40836;39.770;2.714;2022-09-29T08:20:11;100309.69;;;22.02;53.30
54266;BME280;40836;39.770;2.714;2022-09-29T08:22:36;100319.53;;;22.06;53.27
54266;BME280;40836;39.770;2.714;2022-09-29T08:25:02;100308.59;;;22.13;53.52
54266;BME280;40836;39.770;2.714;2022-09-29T08:27:28;100327.41;;;22.15;53.46
54266;BME280;40836;39.770;2.714;2022-09-29T08:29:53;100320.03;;;22.19;53.60
54266;BME280;40836;39.770;2.714;2022-09-29T08:32:19;100324.38;;;22.24;52.66
54266;BME280;40836;39.770;2.714;2022-09-29T08:34:45;100323.97;;;22.25;51.54
54266;BME280;40836;39.770;2.714;2022-09-29T08:37:10;100313.41;;;22.31;51.54
54266;BME280;40836;39.770;2.714;2022-09-29T08:39:36;100311.06;;;22.29;51.27
54266;BME280;40836;39.770;2.714;2022-09-29T08:42:13;100317.78;;;22.39;51.93
54266;BME280;40836;39.770;2.714;2022-09-29T08:44:50;100312.66;;;22.41;50.80
54266;BME280;40836;39.770;2.714;2022-09-29T08:49:48;100325.69;;;22.55;51.19
54266;BME280;40836;39.770;2.714;2022-09-29T08:52:36;100319.34;;;22.44;50.80
54266;BME280;40836;39.770;2.714;2022-09-29T08:57:40;100327.25;;;22.56;50.99
54266;BME280;40836;39.770;2.714;2022-09-29T09:00:10;100322.13;;;22.51;50.25
54266;BME280;40836;39.770;2.714;2022-09-29T09:21:45;100329.78;;;22.97;49.79
54266;BME280;40836;39.770;2.714;2022-09-29T09:24:56;100322.31;;;23.01;50.06
54266;BME280;40836;39.770;2.714;2022-09-29T09:27:26;100327.03;;;23.04;49.99
54266;BME280;40836;39.770;2.714;2022-09-29T09:30:04;100303.81;;;22.91;50.03
54266;BME280;40836;39.770;2.714;2022-09-29T09:32:34;100322.31;;;22.97;49.25
54266;BME280;40836;39.770;2.714;2022-09-29T09:35:28;100325.06;;;23.08;48.69
54266;BME280;40836;39.770;2.714;2022-09-29T09:38:03;100321.94;;;23.10;48.94
54266;BME280;40836;39.770;2.714;2022-09-29T09:40:38;100337.25;;;23.07;48.86
54266;BME280;40836;39.770;2.714;2022-09-29T09:43:45;100330.16;;;23.06;49.65
54266;BME280;40836;39.770;2.714;2022-09-29T09:46:20;100326.25;;;23.18;50.11
54266;BME280;40836;39.770;2.714;2022-09-29T09:49:13;100327.44;;;23.17;49.43
54266;BME280;40836;39.770;2.714;2022-09-29T09:51:51;100319.19;;;23.13;49.91
54266;BME280;40836;39.770;2.714;2022-09-29T09:54:58;100314.84;;;23.12;49.03
54266;BME280;40836;39.770;2.714;2022-09-29T10:02:45;100311.72;;;23.28;50.02
54266;BME280;40836;39.770;2.714;2022-09-29T10:05:14;100307.03;;;23.32;49.99
54266;BME280;40836;39.770;2.714;2022-09-29T10:07:40;100287.38;;;23.26;49.03
54266;BME280;40836;39.770;2.714;2022-09-29T10:10:15;100318.41;;;23.41;48.54
54266;BME280;40836;39.770;2.714;2022-09-29T10:12:41;100313.31;;;23.43;48.41
54266;BME280;40836;39.770;2.714;2022-09-29T10:15:24;100321.56;;;23.40;48.12
54266;BME280;40836;39.770;2.714;2022-09-29T10:18:03;100316.44;;;23.35;47.16
54266;BME280;40836;39.770;2.714;2022-09-29T10:20:33;100302.31;;;23.43;48.23
54266;BME280;40836;39.770;2.714;2022-09-29T10:28:28;100290.50;;;23.79;47.61
54266;BME280;40836;39.770;2.714;2022-09-29T10:31:01;100296.00;;;23.82;47.93
54266;BME280;40836;39.770;2.714;2022-09-29T10:33:27;100308.59;;;23.76;48.25
54266;BME280;40836;39.770;2.714;2022-09-29T10:36:05;100306.22;;;23.67;46.78
54266;BME280;40836;39.770;2.714;2022-09-29T10:38:32;100311.34;;;23.51;48.40
54266;BME280;40836;39.770;2.714;2022-09-29T10:40:58;100304.28;;;23.46;47.12
54266;BME280;40836;39.770;2.714;2022-09-29T10:43:31;100308.97;;;23.53;47.48
54266;BME280;40836;39.770;2.714;2022-09-29T10:45:56;100308.59;;;23.40;47.13
54266;BME280;40836;39.770;2.714;2022-09-29T10:48:25;100299.53;;;23.50;47.79
54266;BME280;40836;39.770;2.714;2022-09-29T10:51:00;100308.59;;;23.62;47.77
54266;BME280;40836;39.770;2.714;2022-09-29T10:53:40;100301.50;;;23.61;47.56
54266;BME280;40836;39.770;2.714;2022-09-29T10:56:16;100296.78;;;23.50;47.20
54266;BME280;40836;39.770;2.714;2022-09-29T10:58:52;100307.03;;;23.64;46.93
54266;BME280;40836;39.770;2.714;2022-09-29T11:01:19;100312.16;;;23.69;46.61
54266;BME280;40836;39.770;2.714;2022-09-29T11:06:30;100296.75;;;23.90;45.68
54266;BME280;40836;39.770;2.714;2022-09-29T11:09:05;100302.28;;;23.86;45.88
54266;BME280;40836;39.770;2.714;2022-09-29T11:11:38;100302.66;;;23.92;46.70
54266;BME280;40836;39.770;2.714;2022-09-29T11:14:05;100290.47;;;24.00;46.76
54266;BME280;40836;39.770;2.714;2022-09-29T11:16:37;100292.78;;;24.09;45.81
54266;BME280;40836;39.770;2.714;2022-09-29T11:19:11;100301.03;;;24.09;45.10
54266;BME280;40836;39.770;2.714;2022-09-29T11:26:53;100281.75;;;24.19;45.34
54266;BME280;40836;39.770;2.714;2022-09-29T11:43:55;100294.25;;;24.35;43.07
54266;BME280;40836;39.770;2.714;2022-09-29T11:58:14;100256.03;;;24.55;43.60
54266;BME280;40836;39.770;2.714;2022-09-29T12:01:00;100238.66;;;24.58;43.93
54266;BME280;40836;39.770;2.714;2022-09-29T12:06:53;100257.16;;;24.64;43.55
54266;BME280;40836;39.770;2.714;2022-09-29T12:11:52;100259.13;;;24.60;43.15
54266;BME280;40836;39.770;2.714;2022-09-29T12:14:24;100242.53;;;24.71;44.42
54266;BME280;40836;39.770;2.714;2022-09-29T12:16:56;100245.75;;;24.62;43.91
54266;BME280;40836;39.770;2.714;2022-09-29T12:19:27;100243.00;;;24.59;44.04
54266;BME280;40836;39.770;2.714;2022-09-29T12:21:57;100240.59;;;24.68;42.89
54266;BME280;40836;39.770;2.714;2022-09-29T12:24:33;100237.84;;;24.64;43.27
54266;BME280;40836;39.770;2.714;2022-09-29T12:27:04;100237.06;;;24.64;44.15
54266;BME280;40836;39.770;2.714;2022-09-29T12:29:44;100261.06;;;24.67;44.66
54266;BME280;40836;39.770;2.714;2022-09-29T12:32:20;100237.78;;;24.75;43.95
54266;BME280;40836;39.770;2.714;2022-09-29T12:34:48;100233.06;;;24.72;43.33
54266;BME280;40836;39.770;2.714;2022-09-29T12:37:35;100222.41;;;24.78;44.00
54266;BME280;40836;39.770;2.714;2022-09-29T12:40:36;100229.88;;;24.77;43.04
54266;BME280;40836;39.770;2.714;2022-09-29T12:53:56;100232.25;;;24.79;41.71
54266;BME280;40836;39.770;2.714;2022-09-29T12:56:44;100227.13;;;24.77;42.61
54266;BME280;40836;39.770;2.714;2022-09-29T13:01:37;100224.03;;;24.72;42.61
54266;BME280;40836;39.770;2.714;2022-09-29T13:14:50;100180.78;;;24.61;42.53
54266;BME280;40836;39.770;2.714;2022-09-29T13:25:36;100185.75;;;24.81;42.50
54266;BME280;40836;39.770;2.714;2022-09-29T13:28:37;100191.69;;;24.76;41.81
54266;BME280;40836;39.770;2.714;2022-09-29T13:31:07;100186.16;;;24.76;42.52
54266;BME280;40836;39.770;2.714;2022-09-29T13:33:36;100189.69;;;24.80;42.43
54266;BME280;40836;39.770;2.714;2022-09-29T13:36:03;100190.06;;;24.82;42.90
54266;BME280;40836;39.770;2.714;2022-09-29T13:38:35;100178.19;;;24.88;42.60
54266;BME280;40836;39.770;2.714;2022-09-29T13:48:57;100186.84;;;24.87;41.75
54266;BME280;40836;39.770;2.714;2022-09-29T13:51:45;100179.72;;;24.93;42.32
54266;BME280;40836;39.770;2.714;2022-09-29T13:56:39;100178.44;;;25.05;43.19
54266;BME280;40836;39.770;2.714;2022-09-29T13:59:13;100171.69;;;25.09;42.80
54266;BME280;40836;39.770;2.714;2022-09-29T14:01:40;100174.97;;;24.97;42.09
54266;BME280;40836;39.770;2.714;2022-09-29T14:04:44;100172.38;;;24.76;42.65
54266;BME280;40836;39.770;2.714;2022-09-29T14:07:13;100171.91;;;24.88;42.61
54266;BME280;40836;39.770;2.714;2022-09-29T14:09:45;100180.84;;;24.99;42.78
54266;BME280;40836;39.770;2.714;2022-09-29T14:12:21;100172.56;;;24.99;42.89
54266;BME280;40836;39.770;2.714;2022-09-29T14:14:56;100177.00;;;24.89;42.63
54266;BME280;40836;39.770;2.714;2022-09-29T14:27:38;100150.22;;;24.86;43.09
54266;BME280;40836;39.770;2.714;2022-09-29T14:37:47;100142.09;;;24.72;44.42
54266;BME280;40836;39.770;2.714;2022-09-29T14:40:18;100144.09;;;24.68;45.51
54266;BME280;40836;39.770;2.714;2022-09-29T14:43:15;100138.97;;;24.66;45.30
54266;BME280;40836;39.770;2.714;2022-09-29T14:51:49;100137.91;;;24.53;45.29
54266;BME280;40836;39.770;2.714;2022-09-29T14:57:35;100135.59;;;24.44;45.26
54266;BME280;40836;39.770;2.714;2022-09-29T15:00:15;100141.06;;;24.52;45.66
54266;BME280;40836;39.770;2.714;2022-09-29T15:02:50;100146.13;;;24.57;45.80
54266;BME280;40836;39.770;2.714;2022-09-29T15:05:28;100142.94;;;24.65;45.71
54266;BME280;40836;39.770;2.714;2022-09-29T15:07:55;100140.91;;;24.70;45.69
54266;BME280;40836;39.770;2.714;2022-09-29T15:10:28;100145.25;;;24.67;46.02
54266;BME280;40836;39.770;2.714;2022-09-29T15:13:17;100146.50;;;24.62;45.36
54266;BME280;40836;39.770;2.714;2022-09-29T15:15:47;100156.31;;;24.63;46.33
54266;BME280;40836;39.770;2.714;2022-09-29T15:20:59;100153.69;;;24.49;46.09
54266;BME280;40836;39.770;2.714;2022-09-29T15:23:33;100158.38;;;24.52;46.20
54266;BME280;40836;39.770;2.714;2022-09-29T15:26:02;100154.84;;;24.52;46.28
54266;BME280;40836;39.770;2.714;2022-09-29T15:28:33;100146.91;;;24.57;46.08
54266;BME280;40836;39.770;2.714;2022-09-29T15:31:05;100143.03;;;24.51;46.94
54266;BME280;40836;39.770;2.714;2022-09-29T15:33:36;100145.41;;;24.49;46.48
54266;BME280;40836;39.770;2.714;2022-09-29T15:36:22;100143.50;;;24.42;46.58
54266;BME280;40836;39.770;2.714;2022-09-29T15:38:52;100143.47;;;24.46;46.69
54266;BME280;40836;39.770;2.714;2022-09-29T15:41:20;100140.75;;;24.32;47.20
54266;BME280;40836;39.770;2.714;2022-09-29T15:43:56;100140.72;;;24.39;46.70
54266;BME280;40836;39.770;2.714;2022-09-29T15:46:33;100136.38;;;24.38;47.42
54266;BME280;40836;39.770;2.714;2022-09-29T15:49:18;100131.28;;;24.43;47.01
54266;BME280;40836;39.770;2.714;2022-09-29T15:52:01;100134.44;;;24.42;47.23
54266;BME280;40836;39.770;2.714;2022-09-29T15:54:31;100134.44;;;24.42;46.96
54266;BME280;40836;39.770;2.714;2022-09-29T15:56:58;100132.47;;;24.42;46.81
54266;BME280;40836;39.770;2.714;2022-09-29T16:04:53;100146.19;;;24.50;46.46
54266;BME280;40836;39.770;2.714;2022-09-29T16:07:26;100128.09;;;24.49;46.61
54266;BME280;40836;39.770;2.714;2022-09-29T16:09:57;100148.53;;;24.51;46.79
54266;BME280;40836;39.770;2.714;2022-09-29T16:12:24;100141.06;;;24.52;47.32
54266;BME280;40836;39.770;2.714;2022-09-29T16:14:53;100147.81;;;24.40;47.20